createdAt,value
2023-01-31T00:00:37.577Z,3.07
2023-01-31T00:03:06.141Z,2.20
2023-01-31T00:05:36.060Z,3.50
2023-01-31T00:08:04.484Z,2.87
2023-01-31T00:10:32.843Z,3.00
2023-01-31T00:13:01.202Z,2.77
2023-01-31T00:15:29.898Z,3.07
2023-01-31T00:17:58.497Z,2.50
2023-01-31T00:20:27.052Z,2.83
2023-01-31T00:22:57.037Z,2.83
2023-01-31T00:25:25.405Z,2.17
2023-01-31T00:27:53.704Z,3.13
2023-01-31T00:30:22.495Z,2.53
2023-01-31T00:32:51.008Z,2.90
2023-01-31T00:35:19.625Z,2.30
2023-01-31T00:37:48.173Z,2.33
2023-01-31T00:40:18.646Z,2.57
2023-01-31T00:42:47.586Z,2.20
2023-01-31T00:45:16.289Z,2.40
2023-01-31T00:47:44.826Z,2.70
2023-01-31T00:50:16.449Z,2.20
2023-01-31T00:52:46.461Z,3.00
2023-01-31T00:55:14.973Z,2.23
2023-01-31T00:57:44.899Z,2.50
2023-01-31T01:00:15.088Z,2.73
2023-01-31T01:02:43.653Z,2.90
2023-01-31T01:05:12.185Z,2.40
2023-01-31T01:07:40.632Z,2.57
2023-01-31T01:10:10.842Z,2.50
2023-01-31T01:12:39.243Z,3.00
2023-01-31T01:15:10.545Z,5.03
2023-01-31T01:17:39.074Z,3.10
2023-01-31T01:20:10.132Z,3.53
2023-01-31T01:22:40.725Z,2.93
2023-01-31T01:25:11.468Z,4.00
2023-01-31T01:27:40.039Z,3.90
2023-01-31T01:30:12.481Z,3.40
2023-01-31T01:32:41.057Z,4.50
2023-01-31T01:35:10.712Z,2.77
2023-01-31T01:37:39.392Z,4.17
2023-01-31T01:40:10.346Z,2.90
2023-01-31T01:42:38.889Z,3.50
2023-01-31T01:45:17.854Z,4.13
2023-01-31T01:47:53.719Z,3.17
2023-01-31T01:50:28.829Z,4.20
2023-01-31T01:53:03.017Z,5.30
2023-01-31T01:55:36.326Z,4.27
2023-01-31T01:58:13.100Z,4.30
2023-01-31T02:00:46.676Z,4.77
2023-01-31T02:03:16.090Z,4.70
2023-01-31T02:05:49.286Z,4.50
2023-01-31T02:08:22.205Z,4.47
2023-01-31T02:10:55.074Z,4.67
2023-01-31T02:13:25.929Z,4.13
2023-01-31T02:15:56.218Z,4.60
2023-01-31T02:18:26.988Z,5.53
2023-01-31T02:21:47.007Z,5.00
2023-01-31T02:24:57.950Z,4.87
2023-01-31T02:28:13.629Z,4.80
2023-01-31T02:31:13.427Z,5.87
2023-01-31T02:33:52.592Z,4.90
2023-01-31T02:36:40.895Z,4.90
2023-01-31T02:39:22.975Z,5.00
2023-01-31T02:41:58.311Z,5.10
2023-01-31T02:44:49.972Z,5.00
2023-01-31T02:47:28.862Z,5.10
2023-01-31T02:50:04.988Z,4.47
2023-01-31T02:52:43.692Z,6.50
2023-01-31T02:55:36.618Z,5.27
2023-01-31T02:58:10.327Z,4.70
2023-01-31T03:00:45.324Z,4.63
2023-01-31T03:03:23.282Z,5.60
2023-01-31T03:06:54.548Z,6.13
2023-01-31T03:09:36.747Z,5.07
2023-01-31T03:12:29.335Z,6.27
2023-01-31T03:15:15.251Z,5.80
2023-01-31T03:17:58.554Z,7.10
2023-01-31T03:20:36.720Z,5.60
2023-01-31T03:23:10.996Z,5.33
2023-01-31T03:25:42.066Z,5.37
2023-01-31T03:28:19.163Z,5.27
2023-01-31T03:30:58.000Z,6.23
2023-01-31T03:33:30.967Z,4.70
2023-01-31T03:36:13.424Z,5.50
2023-01-31T03:38:56.703Z,4.97
2023-01-31T03:41:36.029Z,5.20
2023-01-31T03:44:10.771Z,6.07
2023-01-31T03:46:46.113Z,5.80
2023-01-31T03:49:17.751Z,5.97
2023-01-31T03:51:54.200Z,5.63
2023-01-31T03:54:27.258Z,5.40
2023-01-31T03:57:02.310Z,6.27
2023-01-31T03:59:42.906Z,5.57
2023-01-31T04:02:17.245Z,5.83
2023-01-31T04:04:54.497Z,5.77
2023-01-31T04:07:24.556Z,6.07
2023-01-31T04:09:57.299Z,5.63
2023-01-31T04:12:27.648Z,6.43
2023-01-31T04:14:56.341Z,5.77
2023-01-31T04:17:27.132Z,5.00
2023-01-31T04:19:55.870Z,5.50
2023-01-31T04:22:27.151Z,5.20
2023-01-31T04:24:56.331Z,5.10
2023-01-31T04:27:28.298Z,5.20
2023-01-31T04:30:00.554Z,5.73
2023-01-31T04:32:29.142Z,6.30
2023-01-31T04:34:57.721Z,5.70
2023-01-31T04:37:26.266Z,5.70
2023-01-31T04:39:54.675Z,5.80
2023-01-31T04:42:25.156Z,5.57
2023-01-31T04:44:53.555Z,6.03
2023-01-31T04:47:23.710Z,5.77
2023-01-31T04:49:52.277Z,8.10
2023-01-31T04:52:20.799Z,7.40
2023-01-31T04:54:49.169Z,6.50
2023-01-31T04:57:17.577Z,6.10
2023-01-31T04:59:46.414Z,5.37
2023-01-31T05:02:15.953Z,7.40
2023-01-31T05:04:46.270Z,6.00
2023-01-31T05:07:18.238Z,6.77
2023-01-31T05:09:49.741Z,6.63
2023-01-31T05:12:18.138Z,6.87
2023-01-31T05:14:46.554Z,6.10
2023-01-31T05:17:15.512Z,7.53
2023-01-31T05:19:48.682Z,6.90
2023-01-31T05:22:22.603Z,7.00
2023-01-31T05:24:52.204Z,7.30
2023-01-31T05:27:21.372Z,6.57
2023-01-31T05:29:51.811Z,7.80
2023-01-31T05:32:20.508Z,7.60
2023-01-31T05:34:51.602Z,7.60
2023-01-31T05:37:20.573Z,6.80
2023-01-31T05:39:48.919Z,6.83
2023-01-31T05:42:17.504Z,7.07
2023-01-31T05:44:45.958Z,6.80
2023-01-31T05:47:14.544Z,7.43
2023-01-31T05:49:42.983Z,8.30
2023-01-31T05:52:13.579Z,7.50
2023-01-31T05:54:42.288Z,7.03
2023-01-31T05:57:10.684Z,7.73
2023-01-31T05:59:39.267Z,7.33
2023-01-31T06:02:09.097Z,8.20
2023-01-31T06:04:37.918Z,7.20
2023-01-31T06:07:09.428Z,7.87
2023-01-31T06:09:40.605Z,7.37
2023-01-31T06:12:13.303Z,5.90
2023-01-31T06:14:41.931Z,6.77
2023-01-31T06:17:10.512Z,7.40
2023-01-31T06:19:38.874Z,7.60
2023-01-31T06:22:09.019Z,6.20
2023-01-31T06:24:45.765Z,6.37
2023-01-31T06:27:14.315Z,6.80
2023-01-31T06:29:42.773Z,5.90
2023-01-31T06:32:11.561Z,6.20
2023-01-31T06:34:39.953Z,7.13
2023-01-31T06:37:11.154Z,5.97
2023-01-31T06:39:41.184Z,5.97
2023-01-31T06:42:10.567Z,6.50
2023-01-31T06:44:40.128Z,6.00
2023-01-31T06:47:09.291Z,5.20
2023-01-31T06:49:38.526Z,6.43
2023-01-31T06:52:07.348Z,5.67
2023-01-31T06:54:37.004Z,6.17
2023-01-31T06:57:07.177Z,6.20
2023-01-31T06:59:35.982Z,5.83
2023-01-31T07:02:07.094Z,5.67
2023-01-31T07:04:38.563Z,5.33
2023-01-31T07:07:07.574Z,4.97
2023-01-31T07:09:36.394Z,5.13
2023-01-31T07:12:07.082Z,5.10
2023-01-31T07:14:35.623Z,4.77
2023-01-31T07:17:06.531Z,4.20
2023-01-31T07:19:35.020Z,4.17
2023-01-31T07:22:04.855Z,3.60
2023-01-31T07:24:33.524Z,3.83
2023-01-31T07:27:02.067Z,3.50
2023-01-31T07:29:33.595Z,5.80
2023-01-31T07:32:02.319Z,4.17
2023-01-31T07:34:31.222Z,4.60
2023-01-31T07:37:01.292Z,4.10
2023-01-31T07:39:30.162Z,4.07
2023-01-31T07:41:58.903Z,4.30
2023-01-31T07:44:27.503Z,3.47
2023-01-31T07:46:57.534Z,3.30
2023-01-31T07:49:26.148Z,3.90
2023-01-31T07:51:54.644Z,6.40
2023-01-31T07:54:23.347Z,3.40
2023-01-31T07:56:51.714Z,3.40
2023-01-31T07:59:20.360Z,3.17
2023-01-31T08:02:06.309Z,4.33
2023-01-31T08:04:37.087Z,4.67
2023-01-31T08:07:07.079Z,4.70
2023-01-31T08:09:35.876Z,3.53
2023-01-31T08:12:04.435Z,3.10
2023-01-31T08:14:33.027Z,3.60
2023-01-31T08:17:01.658Z,3.13
2023-01-31T08:19:30.885Z,3.57
2023-01-31T08:22:00.903Z,4.70
2023-01-31T08:24:30.589Z,4.10
2023-01-31T08:26:59.299Z,3.50
2023-01-31T08:29:28.322Z,3.80
2023-01-31T08:31:56.900Z,5.27
2023-01-31T08:34:25.406Z,3.87
2023-01-31T08:36:54.103Z,3.30
2023-01-31T08:39:23.990Z,3.40
2023-01-31T08:41:52.769Z,4.10
2023-01-31T08:44:21.924Z,3.33
2023-01-31T08:46:50.351Z,3.87
2023-01-31T08:49:18.789Z,3.67
2023-01-31T08:51:47.520Z,3.20
2023-01-31T08:54:16.315Z,4.63
2023-01-31T08:56:46.313Z,3.90
2023-01-31T08:59:15.226Z,3.20
2023-01-31T09:01:46.582Z,3.57
2023-01-31T09:04:15.312Z,3.73
2023-01-31T09:06:43.720Z,3.80
2023-01-31T09:09:12.080Z,3.60
2023-01-31T09:11:41.043Z,4.00
2023-01-31T09:14:11.376Z,3.40
2023-01-31T09:16:42.420Z,3.73
2023-01-31T09:19:11.689Z,3.53
2023-01-31T09:21:40.251Z,3.17
2023-01-31T09:24:12.074Z,3.60
2023-01-31T09:26:40.518Z,4.43
2023-01-31T09:29:10.417Z,3.80
2023-01-31T09:31:38.903Z,3.63
2023-01-31T09:34:07.552Z,3.40
2023-01-31T09:36:36.056Z,3.33
2023-01-31T09:39:04.579Z,3.60
2023-01-31T09:41:38.724Z,4.27
2023-01-31T09:44:15.171Z,4.37
2023-01-31T09:46:51.266Z,5.50
2023-01-31T09:49:24.506Z,5.20
2023-01-31T09:52:01.508Z,5.13
2023-01-31T09:54:36.389Z,5.30
2023-01-31T09:57:22.505Z,5.40
2023-01-31T10:00:05.897Z,5.63
2023-01-31T10:03:28.778Z,6.17
2023-01-31T10:06:08.401Z,5.17
2023-01-31T10:08:47.734Z,5.40
2023-01-31T10:11:28.424Z,5.43
2023-01-31T10:14:02.617Z,5.73
2023-01-31T10:16:39.699Z,5.03
2023-01-31T10:19:13.337Z,5.13
2023-01-31T10:21:47.282Z,5.63
2023-01-31T10:24:24.124Z,3.97
2023-01-31T10:26:57.201Z,5.47
2023-01-31T10:29:34.645Z,4.03
2023-01-31T10:32:08.747Z,5.80
2023-01-31T10:34:44.744Z,4.93
2023-01-31T10:37:26.259Z,5.47
2023-01-31T10:39:59.671Z,4.33
2023-01-31T10:42:33.512Z,5.20
2023-01-31T10:45:11.579Z,4.93
2023-01-31T10:47:50.431Z,4.50
2023-01-31T10:50:28.781Z,4.70
2023-01-31T10:53:18.367Z,5.23
2023-01-31T10:56:01.481Z,4.53
2023-01-31T10:58:30.160Z,4.73
2023-01-31T11:01:00.265Z,5.10
2023-01-31T11:03:30.175Z,5.27
2023-01-31T11:05:59.892Z,4.60
2023-01-31T11:08:38.488Z,5.00
2023-01-31T11:11:10.724Z,4.27
2023-01-31T11:13:40.555Z,3.90
2023-01-31T11:16:11.784Z,4.47
2023-01-31T11:18:48.459Z,4.27
2023-01-31T11:21:23.983Z,4.63
2023-01-31T11:23:55.772Z,4.33
2023-01-31T11:26:33.778Z,4.50
2023-01-31T11:29:03.523Z,4.23
2023-01-31T11:31:45.748Z,4.33
2023-01-31T11:34:24.648Z,3.80
2023-01-31T11:36:53.987Z,4.60
2023-01-31T11:39:31.900Z,4.30
2023-01-31T11:42:08.475Z,5.03
2023-01-31T11:44:37.047Z,4.30
2023-01-31T11:47:14.128Z,4.30
2023-01-31T11:49:44.962Z,4.90
2023-01-31T11:52:17.007Z,3.80
2023-01-31T11:54:50.612Z,5.10
2023-01-31T11:57:25.568Z,5.23
2023-01-31T11:59:58.287Z,3.20
2023-01-31T12:02:34.104Z,3.43
2023-01-31T12:05:10.989Z,3.43
2023-01-31T12:07:47.327Z,2.97
2023-01-31T12:10:33.145Z,3.47
2023-01-31T12:13:17.885Z,3.70
2023-01-31T12:16:06.786Z,3.30
2023-01-31T12:18:56.209Z,3.47
2023-01-31T12:21:43.065Z,3.30
2023-01-31T12:24:27.280Z,3.27
2023-01-31T12:27:00.639Z,3.20
2023-01-31T12:30:04.910Z,2.97
2023-01-31T12:33:00.580Z,3.10
2023-01-31T12:35:55.435Z,2.67
2023-01-31T12:38:54.956Z,3.80
2023-01-31T12:41:33.969Z,2.60
2023-01-31T12:44:31.334Z,2.40
2023-01-31T12:47:48.835Z,2.43
2023-01-31T12:50:31.579Z,2.57
2023-01-31T12:53:30.495Z,2.60
2023-01-31T12:56:16.097Z,2.23
2023-01-31T12:59:10.040Z,2.27
2023-01-31T13:01:54.790Z,2.00
2023-01-31T13:04:40.332Z,3.17
2023-01-31T13:07:18.759Z,2.93
2023-01-31T13:09:51.933Z,2.70
2023-01-31T13:12:35.790Z,2.80
2023-01-31T13:15:18.371Z,2.00
2023-01-31T13:17:56.205Z,2.40
2023-01-31T13:20:32.844Z,4.07
2023-01-31T13:23:07.829Z,2.13
2023-01-31T13:25:41.662Z,2.67
2023-01-31T13:28:18.028Z,1.83
2023-01-31T13:30:53.399Z,2.13
2023-01-31T13:33:36.180Z,2.77
2023-01-31T13:36:25.111Z,2.17
2023-01-31T13:38:54.213Z,2.47
2023-01-31T13:41:29.054Z,2.13
2023-01-31T13:44:00.043Z,2.40
2023-01-31T13:46:35.727Z,2.57
2023-01-31T13:49:08.743Z,2.70
2023-01-31T13:51:42.735Z,2.47
2023-01-31T13:54:19.771Z,2.20
2023-01-31T13:56:53.668Z,2.57
2023-01-31T13:59:27.270Z,2.70
2023-01-31T14:02:00.128Z,1.90
2023-01-31T14:04:38.381Z,3.30
2023-01-31T14:07:24.428Z,2.90
2023-01-31T14:10:37.733Z,2.23
2023-01-31T14:13:44.008Z,2.93
2023-01-31T14:16:38.729Z,2.60
2023-01-31T14:19:57.351Z,2.47
2023-01-31T14:22:33.258Z,2.40
2023-01-31T14:25:06.069Z,2.53
2023-01-31T14:28:03.786Z,2.30
2023-01-31T14:30:42.810Z,2.40
2023-01-31T14:33:33.161Z,2.60
2023-01-31T14:36:40.417Z,3.10
2023-01-31T14:40:07.561Z,3.00
2023-01-31T14:43:11.591Z,2.20
2023-01-31T14:46:28.056Z,2.50
2023-01-31T14:49:22.559Z,2.73
2023-01-31T14:52:14.990Z,2.63
2023-01-31T14:55:02.848Z,2.73
2023-01-31T14:57:40.231Z,2.70
2023-01-31T15:00:27.778Z,2.80
2023-01-31T15:03:04.293Z,2.40
2023-01-31T15:05:51.726Z,2.50
2023-01-31T15:08:43.776Z,2.00
2023-01-31T15:11:43.877Z,2.27
2023-01-31T15:14:35.078Z,2.13
2023-01-31T15:17:27.587Z,2.20
2023-01-31T15:20:15.903Z,2.70
2023-01-31T15:22:46.781Z,2.07
2023-01-31T15:25:31.024Z,3.27
2023-01-31T15:28:01.925Z,2.30
2023-01-31T15:30:35.099Z,2.20
2023-01-31T15:33:09.422Z,3.17
2023-01-31T15:35:51.232Z,2.47
2023-01-31T15:38:30.339Z,2.93
2023-01-31T15:41:21.147Z,2.27
2023-01-31T15:43:51.667Z,2.60
2023-01-31T15:46:27.808Z,2.40
2023-01-31T15:48:56.814Z,3.03
2023-01-31T15:51:26.701Z,2.13
2023-01-31T15:54:07.227Z,2.63
2023-01-31T15:56:39.791Z,2.30
2023-01-31T15:59:16.014Z,2.57
2023-01-31T16:01:50.600Z,1.93
2023-01-31T16:04:19.308Z,2.43
2023-01-31T16:06:48.503Z,2.13
2023-01-31T16:09:28.560Z,2.47
2023-01-31T16:11:58.883Z,2.87
2023-01-31T16:14:28.828Z,3.03
2023-01-31T16:16:59.878Z,2.90
2023-01-31T16:19:33.809Z,3.27
2023-01-31T16:22:03.576Z,3.20
2023-01-31T16:24:35.106Z,3.07
2023-01-31T16:27:08.782Z,2.70
2023-01-31T16:29:45.582Z,13.77
2023-01-31T16:32:23.869Z,4.57
2023-01-31T16:35:00.806Z,5.00
2023-01-31T16:37:36.547Z,7.30
2023-01-31T16:40:20.651Z,3.13
2023-01-31T16:42:51.042Z,5.10
2023-01-31T16:45:33.888Z,4.77
2023-01-31T16:48:34.420Z,6.20
2023-01-31T16:51:50.782Z,4.47
2023-01-31T16:54:23.495Z,4.60
2023-01-31T16:57:39.647Z,5.40
2023-01-31T17:00:35.048Z,3.50
2023-01-31T17:03:17.487Z,7.17
2023-01-31T17:05:47.906Z,8.90
2023-01-31T17:08:19.169Z,3.80
2023-01-31T17:10:49.333Z,5.43
2023-01-31T17:13:24.664Z,6.83
2023-01-31T17:15:53.769Z,4.10
2023-01-31T17:18:22.305Z,4.57
2023-01-31T17:20:51.592Z,4.07
2023-01-31T17:23:20.667Z,6.70
2023-01-31T17:25:51.553Z,3.40
2023-01-31T17:28:25.309Z,3.63
2023-01-31T17:30:54.021Z,3.43
2023-01-31T17:33:24.074Z,3.80
2023-01-31T17:35:52.710Z,3.33
2023-01-31T17:38:21.322Z,3.57
2023-01-31T17:40:53.328Z,3.30
2023-01-31T17:43:27.942Z,3.43
2023-01-31T17:45:56.417Z,4.43
2023-01-31T17:48:27.513Z,3.03
2023-01-31T17:50:56.486Z,3.60
2023-01-31T17:53:25.013Z,3.70
2023-01-31T17:55:54.892Z,3.10
2023-01-31T17:58:27.681Z,5.10
2023-01-31T18:00:57.289Z,3.50
2023-01-31T18:03:29.716Z,4.23
2023-01-31T18:06:04.942Z,3.27
2023-01-31T18:08:35.318Z,3.87
2023-01-31T18:11:08.864Z,4.37
2023-01-31T18:13:39.903Z,3.93
2023-01-31T18:16:11.212Z,3.13
2023-01-31T18:18:41.590Z,3.10
2023-01-31T18:21:11.506Z,3.57
2023-01-31T18:23:40.722Z,4.13
2023-01-31T18:26:11.287Z,3.87
2023-01-31T18:28:41.290Z,4.60
2023-01-31T18:31:13.991Z,4.13
2023-01-31T18:33:43.625Z,3.63
2023-01-31T18:36:16.011Z,4.67
2023-01-31T18:38:46.685Z,4.90
2023-01-31T18:41:20.016Z,4.73
2023-01-31T18:43:50.645Z,4.43
2023-01-31T18:46:19.660Z,4.20
2023-01-31T18:48:50.620Z,5.20
2023-01-31T18:51:19.674Z,4.67
2023-01-31T18:53:49.260Z,4.27
2023-01-31T18:56:21.223Z,5.67
2023-01-31T18:58:54.428Z,4.80
2023-01-31T19:01:25.013Z,3.70
2023-01-31T19:03:55.507Z,3.93
2023-01-31T19:06:27.857Z,5.50
2023-01-31T19:08:58.513Z,5.10
2023-01-31T19:11:30.068Z,4.30
2023-01-31T19:14:00.354Z,4.60
2023-01-31T19:16:30.290Z,4.20
2023-01-31T19:18:59.152Z,4.60
2023-01-31T19:21:31.894Z,4.33
2023-01-31T19:24:02.387Z,4.90
2023-01-31T19:26:33.807Z,3.87
2023-01-31T19:29:04.677Z,4.00
2023-01-31T19:31:35.943Z,5.00
2023-01-31T19:34:07.092Z,4.90
2023-01-31T19:36:38.369Z,4.00
2023-01-31T19:39:11.812Z,4.67
2023-01-31T19:41:40.857Z,4.03
2023-01-31T19:44:11.195Z,5.03
2023-01-31T19:46:40.823Z,4.73
2023-01-31T19:49:09.429Z,4.47
2023-01-31T19:51:44.909Z,4.97
2023-01-31T19:54:19.279Z,4.30
2023-01-31T19:56:50.908Z,5.07
2023-01-31T19:59:22.967Z,4.60
2023-01-31T20:01:51.326Z,4.23
2023-01-31T20:04:22.859Z,4.67
2023-01-31T20:06:51.252Z,5.33
2023-01-31T20:09:21.730Z,4.63
2023-01-31T20:11:51.178Z,5.00
2023-01-31T20:14:22.788Z,4.50
2023-01-31T20:16:51.453Z,4.30
2023-01-31T20:19:22.476Z,5.37
2023-01-31T20:21:55.988Z,4.30
2023-01-31T20:24:24.765Z,4.33
2023-01-31T20:26:53.652Z,4.80
2023-01-31T20:29:23.636Z,5.13
2023-01-31T20:31:52.537Z,4.23
2023-01-31T20:34:21.800Z,3.93
2023-01-31T20:36:50.584Z,3.70
2023-01-31T20:39:19.264Z,4.27
2023-01-31T20:41:50.718Z,4.43
2023-01-31T20:44:22.015Z,4.00
2023-01-31T20:46:52.072Z,3.23
2023-01-31T20:49:21.443Z,3.33
2023-01-31T20:51:49.845Z,3.93
2023-01-31T20:54:18.425Z,3.20
2023-01-31T20:56:46.910Z,3.50
2023-01-31T20:59:16.991Z,3.57
2023-01-31T21:01:46.809Z,2.90
2023-01-31T21:04:17.835Z,2.50
2023-01-31T21:06:46.500Z,2.60
2023-01-31T21:09:16.639Z,2.80
2023-01-31T21:11:45.166Z,2.00
2023-01-31T21:14:13.686Z,2.33
2023-01-31T21:16:42.138Z,3.27
2023-01-31T21:19:10.776Z,3.43
2023-01-31T21:21:40.712Z,3.50
2023-01-31T21:24:10.628Z,2.50
2023-01-31T21:26:39.529Z,1.97
2023-01-31T21:29:08.957Z,2.37
2023-01-31T21:31:37.457Z,2.73
2023-01-31T21:34:09.771Z,2.43
2023-01-31T21:36:40.292Z,3.87
2023-01-31T21:39:12.859Z,1.90
2023-01-31T21:41:59.051Z,2.40
2023-01-31T21:44:27.924Z,1.90
2023-01-31T21:46:59.044Z,1.50
2023-01-31T21:49:27.626Z,2.37
2023-01-31T21:51:57.371Z,2.47
2023-01-31T21:54:26.268Z,2.40
2023-01-31T21:56:55.900Z,2.97
2023-01-31T21:59:25.229Z,2.57
2023-01-31T22:01:57.740Z,1.80
2023-01-31T22:04:27.587Z,1.70
2023-01-31T22:06:59.324Z,3.43
2023-01-31T22:09:30.967Z,2.80
2023-01-31T22:11:59.803Z,1.93
2023-01-31T22:14:30.599Z,2.50
2023-01-31T22:16:59.231Z,1.87
2023-01-31T22:19:28.868Z,2.47
2023-01-31T22:22:00.273Z,2.00
2023-01-31T22:24:29.035Z,1.90
2023-01-31T22:26:57.504Z,1.87
2023-01-31T22:29:26.000Z,2.83
2023-01-31T22:31:56.200Z,2.20
2023-01-31T22:34:24.943Z,2.47
2023-01-31T22:36:53.739Z,2.50
2023-01-31T22:39:23.695Z,2.23
2023-01-31T22:41:52.554Z,2.97
2023-01-31T22:44:21.147Z,2.33
2023-01-31T22:46:53.384Z,2.90
2023-01-31T22:49:22.283Z,2.97
2023-01-31T22:51:51.509Z,4.20
2023-01-31T22:54:20.078Z,2.73
2023-01-31T22:56:52.187Z,3.27
2023-01-31T22:59:21.630Z,3.00
2023-01-31T23:01:50.859Z,2.43
2023-01-31T23:04:19.395Z,3.47
2023-01-31T23:06:48.059Z,2.70
2023-01-31T23:09:16.696Z,2.67
2023-01-31T23:11:45.123Z,2.30
2023-01-31T23:14:15.152Z,1.93
2023-01-31T23:17:01.264Z,2.93
2023-01-31T23:19:29.816Z,2.40
2023-01-31T23:21:58.419Z,3.30
2023-01-31T23:24:27.791Z,2.33
2023-01-31T23:27:04.337Z,2.50
2023-01-31T23:29:34.751Z,2.73
2023-01-31T23:32:05.893Z,2.20
2023-01-31T23:34:37.708Z,2.70
2023-01-31T23:37:06.304Z,2.53
2023-01-31T23:39:37.088Z,2.00
2023-01-31T23:42:06.360Z,2.43
2023-01-31T23:44:37.016Z,2.97
2023-01-31T23:47:05.956Z,2.77
2023-01-31T23:49:34.517Z,2.60
2023-01-31T23:52:03.568Z,2.33
2023-01-31T23:54:32.102Z,1.90
2023-01-31T23:57:01.293Z,2.60
2023-01-31T23:59:30.384Z,2.30
